• Join FlightAware (Why Join?)
  • Login
  • US Flag 
Rudolph Flight #1: Arrived! 
10:16AM EST


 

Airport Tracker/Info


-or-


 

Live Flight TrackerFlight Track Log ✈ SKW6345 ✈ 22-Jun-2013 ✈ KSFO - KBZN

Flight Track Log - Related Links

Times and Time Zones

All times are in EDT time to prevent confusion due to time zone crossing. See the SKW6345 flight status page for this flight to view local times or setup timezone preferences in your user account.

Time Position Orientation Groundspeed Altitude Reporting Facility
EDT Latitude Longitude Course Direction KTS MPH feet Rate Location/Type
11:30AM 37.6500 -122.3333 38° Northeast 170 196 1,700  Level Northern Cal TRACON
11:31AM 37.6833 -122.2833 50° Northeast 204 235 3,900 2,100 Climbing Northern Cal TRACON
11:32AM 37.6641 -122.3193 38° Northeast  Level FlightAware Approximate
11:33AM 37.7618 -122.2216 38° Northeast  Level FlightAware Approximate
11:33AM 37.7981 -122.1642 39° Northeast 268 308 8,300  Level Oakland Center
11:34AM 37.8596 -122.1238 38° Northeast  Level FlightAware Approximate
11:34AM 37.8617 -122.1058 36° Northeast 280 322 10,600  Level Oakland Center
11:35AM 37.9574 -122.0259 38° Northeast  Level FlightAware Approximate
11:35AM 37.9269 -122.0444 37° Northeast 291 335 12,600  Level Oakland Center
11:36AM 37.9936 -121.9806 37° Northeast 302 348 14,500 1,860 Climbing Oakland Center
11:37AM 38.0636 -121.9136 37° Northeast 315 362 16,400 1,800 Climbing Oakland Center
11:38AM 38.1500 -121.8328 36° Northeast 323 372 18,300 1,620 Climbing Oakland Center
11:39AM 38.2247 -121.7608 37° Northeast 334 384 19,800 1,320 Climbing Oakland Center
11:40AM 38.3028 -121.6875 36° Northeast 344 396 21,100 1,140 Climbing Oakland Center
11:41AM 38.3808 -121.6117 37° Northeast 352 405 22,200 1,200 Climbing Oakland Center
11:42AM 38.4636 -121.5189 41° Northeast 365 420 23,600 1,140 Climbing Oakland Center
11:43AM 38.5206 -121.4219 53° Northeast 376 433 24,600 900 Climbing Oakland Center
11:44AM 38.5964 -121.3294 44° Northeast 379 436 25,500 1,020 Climbing Oakland Center
11:45AM 38.6900 -121.2194 43° Northeast 389 448 26,700 900 Climbing Oakland Center
11:46AM 38.7692 -121.1236 43° Northeast 391 450 27,400 720 Climbing Oakland Center
11:47AM 38.8503 -121.0267 43° Northeast 397 457 28,200 780 Climbing Oakland Center
11:48AM 38.9308 -120.9275 44° Northeast 400 460 29,100 900 Climbing Oakland Center
11:49AM 39.0119 -120.8294 43° Northeast 401 461 30,100 840 Climbing Oakland Center
11:50AM 39.0919 -120.7317 43° Northeast 398 458 30,900 720 Climbing Oakland Center
11:51AM 39.1725 -120.6331 43° Northeast 398 458 31,600 660 Climbing Oakland Center
11:52AM 39.2531 -120.5342 44° Northeast 400 460 32,300 660 Climbing Oakland Center
11:53AM 39.3336 -120.4367 43° Northeast 398 458 33,000 300 Climbing Oakland Center
11:54AM 39.4147 -120.3369 44° Northeast 401 461 33,000  Level Oakland Center
11:55AM 39.4947 -120.2372 44° Northeast 401 461 33,000  Level Oakland Center
11:56AM 39.5922 -120.1181 43° Northeast 403 464 33,000  Level Oakland Center
11:57AM 39.6656 -120.0264 44° Northeast 401 461 33,000  Level Oakland Center
11:58AM 39.7453 -119.9250 44° Northeast 400 460 33,000  Level Oakland Center
11:59AM 39.8250 -119.8261 44° Northeast 396 456 33,000  Level Oakland Center
12:00PM 39.9064 -119.7244 44° Northeast 401 461 33,000  Level Oakland Center
12:01PM 40.0019 -119.6028 44° Northeast 399 459 33,000  Level Oakland Center
12:02PM 40.0814 -119.5022 44° Northeast 398 458 33,000  Level Oakland Center
12:03PM 40.1606 -119.4014 44° Northeast 397 457 33,000  Level Oakland Center
12:04PM 40.2392 -119.3019 44° Northeast 393 452 33,000  Level Oakland Center
12:05PM 40.3183 -119.2003 44° Northeast 396 456 33,000  Level Oakland Center
12:06PM 40.3958 -119.1011 44° Northeast 391 450 33,000  Level Oakland Center
12:07PM 40.4736 -118.9989 45° Northeast 393 452 33,000  Level Oakland Center
12:08PM 40.5514 -118.9000 44° Northeast 391 450 33,000  Level Oakland Center
12:09PM 40.6286 -118.7978 45° Northeast 391 450 33,000  Level Oakland Center
12:10PM 40.7056 -118.6972 45° Northeast 390 449 33,000  Level Oakland Center
12:11PM 40.7828 -118.5964 45° Northeast 390 449 33,000  Level Oakland Center
12:13PM 40.8675 -118.4856 45° Northeast 390 449 33,000  Level Oakland Center
12:14PM 40.9419 -118.3881 45° Northeast 392 451 33,000  Level Oakland Center
12:15PM 41.0294 -118.2725 45° Northeast 390 449 33,000  Level Oakland Center
12:16PM 41.1014 -118.1778 45° Northeast 390 449 33,000  Level Oakland Center
12:16PM 41.1383 -118.1289 45° Northeast 390 449 33,000  Level Salt Lake Center
12:17PM 41.2242 -118.0158 45° Northeast 389 448 33,000  Level Salt Lake Center
12:18PM 41.2961 -117.9178 46° Northeast 388 447 33,000  Level Salt Lake Center
12:19PM 41.3811 -117.8033 45° Northeast 387 445 33,000  Level Salt Lake Center
12:20PM 41.4539 -117.7053 45° Northeast 388 447 33,000  Level Salt Lake Center
12:21PM 41.5389 -117.5900 45° Northeast 390 449 33,000  Level Salt Lake Center
12:22PM 41.6119 -117.4919 45° Northeast 390 449 33,000  Level Salt Lake Center
12:23PM 41.6969 -117.3753 46° Northeast 390 449 33,000  Level Salt Lake Center
12:24PM 41.7694 -117.2717 47° Northeast 396 456 33,000  Level Salt Lake Center
12:25PM 41.8411 -117.1744 45° Northeast 384 442 33,000  Level Salt Lake Center
12:26PM 41.9250 -117.0589 46° Northeast 383 441 33,000  Level Salt Lake Center
12:27PM 41.9958 -116.9589 46° Northeast 381 438 33,000  Level Salt Lake Center
12:28PM 42.0794 -116.8431 46° Northeast 386 444 33,000  Level Salt Lake Center
12:30PM 42.1494 -116.7456 46° Northeast 380 437 33,000  Level Salt Lake Center
12:31PM 42.2303 -116.6328 46° Northeast 372 428 33,000  Level Salt Lake Center
12:32PM 42.3011 -116.5331 46° Northeast 383 441 33,000  Level Salt Lake Center
12:33PM 42.3814 -116.4197 46° Northeast 376 433 33,000  Level Salt Lake Center
12:34PM 42.4508 -116.3231 46° Northeast 374 430 33,000  Level Salt Lake Center
12:35PM 42.5314 -116.2097 46° Northeast 373 429 33,000  Level Salt Lake Center
12:36PM 42.6006 -116.1114 46° Northeast 376 433 33,000  Level Salt Lake Center
12:37PM 42.6814 -115.9958 46° Northeast 378 435 33,000  Level Salt Lake Center
12:38PM 42.7511 -115.8950 47° Northeast 382 440 33,000  Level Salt Lake Center
12:39PM 42.8325 -115.7772 47° Northeast 383 441 33,000  Level Salt Lake Center
12:40PM 42.9033 -115.6750 47° Northeast 387 445 33,000  Level Salt Lake Center
12:41PM 42.9733 -115.5728 47° Northeast 386 444 33,000  Level Salt Lake Center
12:42PM 43.0564 -115.4544 46° Northeast 386 444 33,000  Level Salt Lake Center
12:43PM 43.1269 -115.3500 47° Northeast 391 450 33,000  Level Salt Lake Center
12:44PM 43.2106 -115.2283 47° Northeast 393 452 33,000  Level Salt Lake Center
12:45PM 43.2814 -115.1242 47° Northeast 391 450 33,000  Level Salt Lake Center
12:46PM 43.3653 -114.9994 47° Northeast 396 456 33,000  Level Salt Lake Center
12:47PM 43.4358 -114.8953 47° Northeast 391 450 33,000  Level Salt Lake Center
12:48PM 43.5192 -114.7703 47° Northeast 395 455 33,000  Level Salt Lake Center
12:49PM 43.5886 -114.6644 48° Northeast 392 451 33,000  Level Salt Lake Center
12:50PM 43.6706 -114.5414 47° Northeast 390 449 33,000  Level Salt Lake Center
12:51PM 43.7397 -114.4361 48° Northeast 388 447 33,000  Level Salt Lake Center
12:52PM 43.8203 -114.3139 48° Northeast 384 442 33,000  Level Salt Lake Center
12:53PM 43.8892 -114.2092 48° Northeast 382 440 33,000  Level Salt Lake Center
12:54PM 43.9692 -114.0872 48° Northeast 381 438 33,000  Level Salt Lake Center
12:55PM 44.0381 -113.9822 48° Northeast 384 442 33,000  Level Salt Lake Center
12:56PM 44.1078 -113.8750 48° Northeast 379 436 33,000  Level Salt Lake Center
12:57PM 44.1839 -113.7528 49° Northeast 375 432 33,000  Level Salt Lake Center
12:58PM 44.2533 -113.6486 47° Northeast 381 438 33,000  Level Salt Lake Center
12:59PM 44.3308 -113.5250 49° Northeast 381 438 33,000  Level Salt Lake Center
01:01PM 44.3983 -113.4197 48° Northeast 380 437 33,000  Level Salt Lake Center
01:02PM 44.4758 -113.2958 49° Northeast 379 436 33,000  Level Salt Lake Center
01:03PM 44.5447 -113.1886 48° Northeast 384 442 33,000  Level Salt Lake Center
01:04PM 44.6247 -113.0628 48° Northeast 387 445 33,000  Level Salt Lake Center
01:05PM 44.6925 -112.9528 49° Northeast 390 449 33,000  Level Salt Lake Center
01:06PM 44.7617 -112.8436 48° Northeast 390 449 33,000  Level Salt Lake Center
01:07PM 44.8428 -112.7131 49° Northeast 396 456 33,000  Level Salt Lake Center
01:08PM 44.9114 -112.6011 49° Northeast 395 455 33,000 -60 Level Salt Lake Center
01:09PM 44.9928 -112.4694 49° Northeast 397 457 32,900 -1,200 Descending Salt Lake Center
01:10PM 45.0631 -112.3539 49° Northeast 402 463 30,600 -2,520 Descending Salt Lake Center
01:11PM 45.1483 -112.2192 48° Northeast 409 471 27,800 -2,580 Descending Salt Lake Center
01:12PM 45.2219 -112.1169 44° Northeast 390 449 25,300 -2,400 Descending Salt Lake Center
01:13PM 45.3125 -112.0497 28° Northeast 373 429 22,900 -2,400 Descending Salt Lake Center
01:14PM 45.4003 -111.9800 29° Northeast 363 418 20,400 -2,520 Descending Salt Lake Center
01:15PM 45.4819 -111.9003 34° Northeast 357 411 17,800 -2,700 Descending Salt Lake Center
01:16PM 45.5833 -111.8206 29° Northeast 350 403 14,900 -2,340 Descending Salt Lake Center
01:17PM 45.6689 -111.7667 24° Northeast 339 390 13,000 -1,020 Descending Salt Lake Center
01:18PM 45.7514 -111.7014 29° Northeast 336 387 12,900 -1,020 Descending Salt Lake Center
01:19PM 45.8331 -111.6381 28° Northeast 335 386 10,900 -1,560 Descending Salt Lake Center
01:20PM 45.9056 -111.5806 29° Northeast 316 364 9,700 -1,080 Descending Salt Lake Center
01:21PM 45.9628 -111.5183 37° Northeast 281 323 8,700 -840 Descending Salt Lake Center
01:22PM 45.9675 -111.4164 86° East 281 323 8,000 -720 Descending Salt Lake Center